Seadream 1 — C6PW8 — position and weather

sailwx.info

Track history (hours):
 
Tides and Currents Weather Stations Pressure Air Temp Water Temp Dewpoint Dewpoint Depression Visibility Wind Speed Wind Dir Waves Ship Positions

Seadream 1

Last reported at 2017-Jun-27 13:27 UTC. Time now 2017-Jun-29 00:52 UTC.
Position N 39°40' E 018°25'.

Length 105 m; draft 4.4 m.

Type: Ship. MMSI: 308908000.

Date/timePositionNaut miles runAvg speedWind from/ knotsBaromVisibWave heightAir tempDewpointWater temp
2017-Jun-27 13:27N 39°40' E 018°25'1211.8
2017-Jun-27 12:27N 39°32' E 018°15'511.8
2017-Jun-27 12:00N 39°28' E 018°10'611.7
2017-Jun-27 11:30N 39°24' E 018°04'611.8
2017-Jun-27 11:00N 39°20' E 017°59'611.6
2017-Jun-27 10:30N 39°16' E 017°54'611.5
2017-Jun-27 09:58N 39°12' E 017°48'511.6
2017-Jun-27 09:30N 39°08' E 017°43'611.5
2017-Jun-27 09:00N 39°04' E 017°38'611.3
2017-Jun-27 08:30N 38°60' E 017°32'611.3
2017-Jun-27 08:00N 38°56' E 017°27'611.2
2017-Jun-27 07:30N 38°52' E 017°22'811.1
2017-Jun-27 06:45N 38°46' E 017°15'3 9.2
2017-Jun-27 06:24N 38°44' E 017°12'7610.7
2017-Jun-26 23:14N 37°52' E 015°60'210.8
2017-Jun-26 23:00N 37°52' E 015°57'510.2
2017-Jun-26 22:29N 37°52' E 015°50'510.0
2017-Jun-26 22:01N 37°51' E 015°44'510.6
2017-Jun-26 21:30N 37°51' E 015°37'611.0
2017-Jun-26 21:00N 37°50' E 015°30'611.3
2017-Jun-26 20:30N 37°50' E 015°23'5 8.0
2017-Jun-26 19:55N 37°50' E 015°17'1 1.2
2017-Jun-26 19:28N 37°50' E 015°17'0 0.0
2017-Jun-26 18:58N 37°50' E 015°17'0 0.0
2017-Jun-26 18:23N 37°50' E 015°17'0 0.0
2017-Jun-26 17:53N 37°50' E 015°17'0 0.0
2017-Jun-26 16:39N 37°50' E 015°17'0 0.1
2017-Jun-26 16:24N 37°50' E 015°17'0 0.0
2017-Jun-26 15:57N 37°50' E 015°17'0 0.1
2017-Jun-26 15:28N 37°50' E 015°17'0 0.0
2017-Jun-26 14:58N 37°50' E 015°17'0 0.1
2017-Jun-26 14:28N 37°50' E 015°17'0 0.0
2017-Jun-26 13:26N 37°50' E 015°17'0 0.0
2017-Jun-26 12:47N 37°50' E 015°17'0 0.1
2017-Jun-26 12:30N 37°50' E 015°17'0 0.0
2017-Jun-26 10:34N 37°50' E 015°17'0 0.4
2017-Jun-26 10:28N 37°50' E 015°17'18 4.9
2017-Jun-26 06:51N 38°03' E 015°31'511.8
2017-Jun-26 06:26N 38°08' E 015°34'511.0
2017-Jun-26 06:01N 38°12' E 015°36'6 9.6
2017-Jun-26 05:24N 38°17' E 015°40'410.1
2017-Jun-26 04:59N 38°21' E 015°38'1010.3
2017-Jun-26 04:01N 38°30' E 015°33'110.4
2017-Jun-26 03:57N 38°30' E 015°32'510.7
2017-Jun-26 03:30N 38°35' E 015°30'610.9
2017-Jun-26 02:59N 38°40' E 015°26'910.7
2017-Jun-26 02:09N 38°48' E 015°21'10510.6
2017-Jun-25 16:15N 40°23' E 014°23'711.4
2017-Jun-25 15:39N 40°29' E 014°19'411.3
2017-Jun-25 15:18N 40°33' E 014°17'2 0.6
2017-Jun-25 11:16N 40°34' E 014°14'0 0.0
2017-Jun-25 10:59N 40°34' E 014°14'0 0.0
2017-Jun-25 10:29N 40°34' E 014°14'0 0.0
2017-Jun-25 06:21N 40°34' E 014°14'0 0.3
2017-Jun-25 06:00N 40°34' E 014°14'4 8.9
2017-Jun-25 05:30N 40°35' E 014°08'165 5.5
2017-Jun-23 23:38N 41°49' E 010°52'65 2.8
2017-Jun-23 00:46N 41°16' E 009°38'310.1
2017-Jun-23 00:28N 41°18' E 009°35'4 8.5
2017-Jun-23 00:00N 41°20' E 009°30'7 0.3
2017-Jun-22 04:31N 41°22' E 009°22'0 9.7
2017-Jun-22 04:29N 41°22' E 009°22'6 9.2
2017-Jun-22 03:53N 41°26' E 009°27'5710.3
2017-Jun-21 22:17N 42°20' E 009°51'610.9
2017-Jun-21 21:43N 42°26' E 009°54'210.9
2017-Jun-21 21:30N 42°29' E 009°54'610.8
2017-Jun-21 20:59N 42°34' E 009°57'510.7
2017-Jun-21 20:30N 42°39' E 009°59'510.3
2017-Jun-21 20:00N 42°44' E 010°01'714.0
2017-Jun-21 19:30N 42°50' E 010°05'612.7
2017-Jun-21 19:01N 42°51' E 010°13'611.2
2017-Jun-21 18:30N 42°49' E 010°20'1 0.5
2017-Jun-21 17:27N 42°49' E 010°20'0 0.0
2017-Jun-21 16:54N 42°49' E 010°20'0 0.0
2017-Jun-21 16:30N 42°49' E 010°20'0 0.0
2017-Jun-21 08:43N 42°49' E 010°20'0 0.0
2017-Jun-21 08:20N 42°49' E 010°20'0 0.0
2017-Jun-21 07:58N 42°49' E 010°20'0 0.0
2017-Jun-21 07:30N 42°49' E 010°20'0 0.0
2017-Jun-21 07:00N 42°49' E 010°20'0 0.0
2017-Jun-21 06:24N 42°49' E 010°20'1 3.7
2017-Jun-21 05:59N 42°50' E 010°21'5 8.3
2017-Jun-21 05:21N 42°54' E 010°16'3 8.2
2017-Jun-21 05:00N 42°56' E 010°14'4 7.9
2017-Jun-21 04:30N 42°59' E 010°10'4 7.9
2017-Jun-21 04:00N 43°02' E 010°07'4 8.1
2017-Jun-21 03:31N 43°06' E 010°03'4 8.0
2017-Jun-21 03:01N 43°09' E 010°00'4 8.2
2017-Jun-21 02:30N 43°12' E 009°57'4 8.6
2017-Jun-21 02:00N 43°15' E 009°53'4 8.8
2017-Jun-21 01:30N 43°19' E 009°50'4 8.7
2017-Jun-21 01:01N 43°23' E 009°46'4 8.4
2017-Jun-21 00:30N 43°27' E 009°45'4 8.6
2017-Jun-21 00:01N 43°31' E 009°45'4 8.7
2017-Jun-20 23:30N 43°35' E 009°46'4 8.7
2017-Jun-20 23:00N 43°39' E 009°48'4 8.9
2017-Jun-20 22:30N 43°44' E 009°49'4 8.9
2017-Jun-20 22:00N 43°48' E 009°50'5 9.1
2017-Jun-20 21:30N 43°53' E 009°52'5 9.3
2017-Jun-20 21:00N 43°57' E 009°53'4 8.3
2017-Jun-20 20:30N 44°01' E 009°52'2 4.4
2017-Jun-20 19:59N 44°03' E 009°51'0 0.0
2017-Jun-20 19:29N 44°03' E 009°51'0 0.0
2017-Jun-20 19:00N 44°03' E 009°51'0 0.0
2017-Jun-20 18:30N 44°03' E 009°51'0 0.0
2017-Jun-20 18:00N 44°03' E 009°51'0 0.0
2017-Jun-20 17:31N 44°03' E 009°51'0 0.0
2017-Jun-20 16:46N 44°03' E 009°51'0 0.0
2017-Jun-20 16:28N 44°03' E 009°51'0 0.0
2017-Jun-20 15:59N 44°03' E 009°51'0 0.0
2017-Jun-20 15:29N 44°03' E 009°51'0 0.0
2017-Jun-20 15:00N 44°03' E 009°51'0 0.0
2017-Jun-20 13:59N 44°03' E 009°51'0 0.0
2017-Jun-20 13:30N 44°03' E 009°51'0 0.0
2017-Jun-20 13:00N 44°03' E 009°51'0 0.0
2017-Jun-20 12:29N 44°03' E 009°51'0 0.0
2017-Jun-20 11:56N 44°03' E 009°51'0 0.1
2017-Jun-20 11:30N 44°03' E 009°51'0 0.0
2017-Jun-20 11:00N 44°03' E 009°51'0 0.0
2017-Jun-20 10:30N 44°03' E 009°51'0 0.0
2017-Jun-20 09:58N 44°03' E 009°51'0 0.0
2017-Jun-20 09:28N 44°03' E 009°51'0 0.1
2017-Jun-20 08:58N 44°03' E 009°51'0 0.0
2017-Jun-20 08:29N 44°03' E 009°51'0 0.0
2017-Jun-20 07:59N 44°03' E 009°51'0 0.0
2017-Jun-20 07:29N 44°03' E 009°51'0 0.0
2017-Jun-20 07:00N 44°03' E 009°51'0 0.0
2017-Jun-20 06:30N 44°03' E 009°51'0 0.0
2017-Jun-20 06:00N 44°03' E 009°51'0 0.6
2017-Jun-20 05:30N 44°03' E 009°52'4 7.6
2017-Jun-20 05:00N 44°01' E 009°56'3 5.2
2017-Jun-20 04:30N 43°59' E 009°53'3 7.0
2017-Jun-20 04:01N 44°00' E 009°48'3 6.7
2017-Jun-20 03:30N 44°01' E 009°44'3 5.5
2017-Jun-20 03:00N 44°02' E 009°40'3 5.7
2017-Jun-20 02:30N 44°04' E 009°37'3 5.7
2017-Jun-20 02:00N 44°05' E 009°34'3 5.6
2017-Jun-20 01:30N 44°07' E 009°30'3 5.4
2017-Jun-20 01:01N 44°08' E 009°27'3 5.4
2017-Jun-20 00:31N 44°10' E 009°24'3 5.6
2017-Jun-20 00:00N 44°12' E 009°21'3 5.9
2017-Jun-19 23:31N 44°14' E 009°19'3 6.0
2017-Jun-19 23:00N 44°17' E 009°18'2 0.1
2017-Jun-19 05:43N 44°19' E 009°17'2 7.1
2017-Jun-19 05:26N 44°17' E 009°19'3 7.8
2017-Jun-19 05:00N 44°16' E 009°15'4 7.9
2017-Jun-19 04:30N 44°14' E 009°10'4 7.7
2017-Jun-19 04:00N 44°12' E 009°05'4 8.8
2017-Jun-19 03:30N 44°10' E 008°60'4 8.6
2017-Jun-19 03:00N 44°08' E 008°54'4 8.7
2017-Jun-19 02:30N 44°06' E 008°49'5 9.9
2017-Jun-19 01:59N 44°04' E 008°42'5 9.7
2017-Jun-19 01:30N 44°01' E 008°37'5 9.5
2017-Jun-19 01:00N 43°59' E 008°31'5 9.3
2017-Jun-19 00:30N 43°56' E 008°26'5 9.0
2017-Jun-19 00:00N 43°53' E 008°21'4 8.8
2017-Jun-18 23:30N 43°51' E 008°16'4 8.9
2017-Jun-18 23:00N 43°50' E 008°10'5 9.1
2017-Jun-18 22:30N 43°49' E 008°04'31 9.0
2017-Jun-18 19:00N 43°36' E 007°24'8 9.2
2017-Jun-18 18:11N 43°33' E 007°15'2 9.2
2017-Jun-18 17:59N 43°32' E 007°12'4 9.1
2017-Jun-18 17:30N 43°30' E 007°07'4 7.9
2017-Jun-18 17:01N 43°29' E 007°02'3 5.6
2017-Jun-18 16:29N 43°32' E 007°01'0 0.1
2017-Jun-18 15:50N 43°32' E 007°01'0 0.0
2017-Jun-18 15:26N 43°32' E 007°01'0 0.0
2017-Jun-18 14:48N 43°32' E 007°01'0 0.0
2017-Jun-18 14:00N 43°32' E 007°01'0 0.0
2017-Jun-18 13:28N 43°32' E 007°01'0 0.0
2017-Jun-18 12:52N 43°32' E 007°01'0 0.0
2017-Jun-18 12:25N 43°32' E 007°01'0 0.0
2017-Jun-18 11:17N 43°32' E 007°01'0 0.0
2017-Jun-18 10:53N 43°32' E 007°01'0 0.0
2017-Jun-18 10:00N 43°32' E 007°01'0 0.1
2017-Jun-18 09:27N 43°32' E 007°01'0 0.0
2017-Jun-18 08:58N 43°32' E 007°01'0 0.0
2017-Jun-18 08:28N 43°32' E 007°01'0 0.0
2017-Jun-18 07:58N 43°32' E 007°01'0 0.0
2017-Jun-18 07:29N 43°32' E 007°01'0 0.0
2017-Jun-18 06:53N 43°32' E 007°01'0 0.1
2017-Jun-18 06:29N 43°32' E 007°01'0 0.1
2017-Jun-18 05:57N 43°32' E 007°01'0 0.0
2017-Jun-18 05:21N 43°32' E 007°01'0 0.0
2017-Jun-18 04:54N 43°32' E 007°01'0 0.0
2017-Jun-18 04:22N 43°32' E 007°01'0 0.0
2017-Jun-18 03:55N 43°32' E 007°01'0 0.0
2017-Jun-18 03:28N 43°32' E 007°01'0 0.0
2017-Jun-18 02:50N 43°32' E 007°01'0 0.0
2017-Jun-18 02:29N 43°32' E 007°01'0 0.0
2017-Jun-18 01:51N 43°32' E 007°01'0 0.0
2017-Jun-18 01:27N 43°32' E 007°01'0 0.0
2017-Jun-18 00:53N 43°32' E 007°01'0 0.0
2017-Jun-18 00:23N 43°32' E 007°01'0 0.0
2017-Jun-18 00:00N 43°32' E 007°01'0 0.0
2017-Jun-17 22:25N 43°32' E 007°01'0 0.0
2017-Jun-17 21:58N 43°32' E 007°01'0 0.0
2017-Jun-17 21:28N 43°32' E 007°01'0 0.0
2017-Jun-17 20:59N 43°32' E 007°01'0 0.0
2017-Jun-17 19:29N 43°32' E 007°01'0 0.0
2017-Jun-17 18:47N 43°32' E 007°01'0 0.0
2017-Jun-17 18:23N 43°32' E 007°01'0 0.0
2017-Jun-17 17:51N 43°32' E 007°01'2 5.5
2017-Jun-17 17:31N 43°30' E 007°01'510.9
2017-Jun-17 17:00N 43°31' E 007°08'  
Track history (hours):
 
Tides and Currents Weather Stations Pressure Air Temp Water Temp Dewpoint Dewpoint Depression Visibility Wind Speed Wind Dir Waves Ship Positions

Seadream 1

Last reported at 2017-Jun-27 13:27 UTC. Time now 2017-Jun-29 00:52 UTC.
Position N 39°40' E 018°25'.

Length 105 m; draft 4.4 m.

Type: Ship. MMSI: 308908000.

Date/timePositionNaut miles runAvg speedWind from/ knotsBaromVisibWave heightAir tempDewpointWater temp
2017-Jun-27 13:27N 39°40' E 018°25'1211.8
2017-Jun-27 12:27N 39°32' E 018°15'511.8
2017-Jun-27 12:00N 39°28' E 018°10'611.7
2017-Jun-27 11:30N 39°24' E 018°04'611.8
2017-Jun-27 11:00N 39°20' E 017°59'611.6
2017-Jun-27 10:30N 39°16' E 017°54'611.5
2017-Jun-27 09:58N 39°12' E 017°48'511.6
2017-Jun-27 09:30N 39°08' E 017°43'611.5
2017-Jun-27 09:00N 39°04' E 017°38'611.3
2017-Jun-27 08:30N 38°60' E 017°32'611.3
2017-Jun-27 08:00N 38°56' E 017°27'611.2
2017-Jun-27 07:30N 38°52' E 017°22'811.1
2017-Jun-27 06:45N 38°46' E 017°15'3 9.2
2017-Jun-27 06:24N 38°44' E 017°12'7610.7
2017-Jun-26 23:14N 37°52' E 015°60'210.8
2017-Jun-26 23:00N 37°52' E 015°57'510.2
2017-Jun-26 22:29N 37°52' E 015°50'510.0
2017-Jun-26 22:01N 37°51' E 015°44'510.6
2017-Jun-26 21:30N 37°51' E 015°37'611.0
2017-Jun-26 21:00N 37°50' E 015°30'611.3
2017-Jun-26 20:30N 37°50' E 015°23'5 8.0
2017-Jun-26 19:55N 37°50' E 015°17'1 1.2
2017-Jun-26 19:28N 37°50' E 015°17'0 0.0
2017-Jun-26 18:58N 37°50' E 015°17'0 0.0
2017-Jun-26 18:23N 37°50' E 015°17'0 0.0
2017-Jun-26 17:53N 37°50' E 015°17'0 0.0
2017-Jun-26 16:39N 37°50' E 015°17'0 0.1
2017-Jun-26 16:24N 37°50' E 015°17'0 0.0
2017-Jun-26 15:57N 37°50' E 015°17'0 0.1
2017-Jun-26 15:28N 37°50' E 015°17'0 0.0
2017-Jun-26 14:58N 37°50' E 015°17'0 0.1
2017-Jun-26 14:28N 37°50' E 015°17'0 0.0
2017-Jun-26 13:26N 37°50' E 015°17'0 0.0
2017-Jun-26 12:47N 37°50' E 015°17'0 0.1
2017-Jun-26 12:30N 37°50' E 015°17'0 0.0
2017-Jun-26 10:34N 37°50' E 015°17'0 0.4
2017-Jun-26 10:28N 37°50' E 015°17'18 4.9
2017-Jun-26 06:51N 38°03' E 015°31'511.8
2017-Jun-26 06:26N 38°08' E 015°34'511.0
2017-Jun-26 06:01N 38°12' E 015°36'6 9.6
2017-Jun-26 05:24N 38°17' E 015°40'410.1
2017-Jun-26 04:59N 38°21' E 015°38'1010.3
2017-Jun-26 04:01N 38°30' E 015°33'110.4
2017-Jun-26 03:57N 38°30' E 015°32'510.7
2017-Jun-26 03:30N 38°35' E 015°30'610.9
2017-Jun-26 02:59N 38°40' E 015°26'910.7
2017-Jun-26 02:09N 38°48' E 015°21'10510.6
2017-Jun-25 16:15N 40°23' E 014°23'711.4
2017-Jun-25 15:39N 40°29' E 014°19'411.3
2017-Jun-25 15:18N 40°33' E 014°17'2 0.6
2017-Jun-25 11:16N 40°34' E 014°14'0 0.0
2017-Jun-25 10:59N 40°34' E 014°14'0 0.0
2017-Jun-25 10:29N 40°34' E 014°14'0 0.0
2017-Jun-25 06:21N 40°34' E 014°14'0 0.3
2017-Jun-25 06:00N 40°34' E 014°14'4 8.9
2017-Jun-25 05:30N 40°35' E 014°08'165 5.5
2017-Jun-23 23:38N 41°49' E 010°52'65 2.8
2017-Jun-23 00:46N 41°16' E 009°38'310.1
2017-Jun-23 00:28N 41°18' E 009°35'4 8.5
2017-Jun-23 00:00N 41°20' E 009°30'7 0.3
2017-Jun-22 04:31N 41°22' E 009°22'0 9.7
2017-Jun-22 04:29N 41°22' E 009°22'6 9.2
2017-Jun-22 03:53N 41°26' E 009°27'5710.3
2017-Jun-21 22:17N 42°20' E 009°51'610.9
2017-Jun-21 21:43N 42°26' E 009°54'210.9
2017-Jun-21 21:30N 42°29' E 009°54'610.8
2017-Jun-21 20:59N 42°34' E 009°57'510.7
2017-Jun-21 20:30N 42°39' E 009°59'510.3
2017-Jun-21 20:00N 42°44' E 010°01'714.0
2017-Jun-21 19:30N 42°50' E 010°05'612.7
2017-Jun-21 19:01N 42°51' E 010°13'611.2
2017-Jun-21 18:30N 42°49' E 010°20'1 0.5
2017-Jun-21 17:27N 42°49' E 010°20'0 0.0
2017-Jun-21 16:54N 42°49' E 010°20'0 0.0
2017-Jun-21 16:30N 42°49' E 010°20'0 0.0
2017-Jun-21 08:43N 42°49' E 010°20'0 0.0
2017-Jun-21 08:20N 42°49' E 010°20'0 0.0
2017-Jun-21 07:58N 42°49' E 010°20'0 0.0
2017-Jun-21 07:30N 42°49' E 010°20'0 0.0
2017-Jun-21 07:00N 42°49' E 010°20'0 0.0
2017-Jun-21 06:24N 42°49' E 010°20'1 3.7
2017-Jun-21 05:59N 42°50' E 010°21'5 8.3
2017-Jun-21 05:21N 42°54' E 010°16'3 8.2
2017-Jun-21 05:00N 42°56' E 010°14'4 7.9
2017-Jun-21 04:30N 42°59' E 010°10'4 7.9
2017-Jun-21 04:00N 43°02' E 010°07'4 8.1
2017-Jun-21 03:31N 43°06' E 010°03'4 8.0
2017-Jun-21 03:01N 43°09' E 010°00'4 8.2
2017-Jun-21 02:30N 43°12' E 009°57'4 8.6
2017-Jun-21 02:00N 43°15' E 009°53'4 8.8
2017-Jun-21 01:30N 43°19' E 009°50'4 8.7
2017-Jun-21 01:01N 43°23' E 009°46'4 8.4
2017-Jun-21 00:30N 43°27' E 009°45'4 8.6
2017-Jun-21 00:01N 43°31' E 009°45'4 8.7
2017-Jun-20 23:30N 43°35' E 009°46'4 8.7
2017-Jun-20 23:00N 43°39' E 009°48'4 8.9
2017-Jun-20 22:30N 43°44' E 009°49'4 8.9
2017-Jun-20 22:00N 43°48' E 009°50'5 9.1
2017-Jun-20 21:30N 43°53' E 009°52'5 9.3
2017-Jun-20 21:00N 43°57' E 009°53'4 8.3
2017-Jun-20 20:30N 44°01' E 009°52'2 4.4
2017-Jun-20 19:59N 44°03' E 009°51'0 0.0
2017-Jun-20 19:29N 44°03' E 009°51'0 0.0
2017-Jun-20 19:00N 44°03' E 009°51'0 0.0
2017-Jun-20 18:30N 44°03' E 009°51'0 0.0
2017-Jun-20 18:00N 44°03' E 009°51'0 0.0
2017-Jun-20 17:31N 44°03' E 009°51'0 0.0
2017-Jun-20 16:46N 44°03' E 009°51'0 0.0
2017-Jun-20 16:28N 44°03' E 009°51'0 0.0
2017-Jun-20 15:59N 44°03' E 009°51'0 0.0
2017-Jun-20 15:29N 44°03' E 009°51'0 0.0
2017-Jun-20 15:00N 44°03' E 009°51'0 0.0
2017-Jun-20 13:59N 44°03' E 009°51'0 0.0
2017-Jun-20 13:30N 44°03' E 009°51'0 0.0
2017-Jun-20 13:00N 44°03' E 009°51'0 0.0
2017-Jun-20 12:29N 44°03' E 009°51'0 0.0
2017-Jun-20 11:56N 44°03' E 009°51'0 0.1
2017-Jun-20 11:30N 44°03' E 009°51'0 0.0
2017-Jun-20 11:00N 44°03' E 009°51'0 0.0
2017-Jun-20 10:30N 44°03' E 009°51'0 0.0
2017-Jun-20 09:58N 44°03' E 009°51'0 0.0
2017-Jun-20 09:28N 44°03' E 009°51'0 0.1
2017-Jun-20 08:58N 44°03' E 009°51'0 0.0
2017-Jun-20 08:29N 44°03' E 009°51'0 0.0
2017-Jun-20 07:59N 44°03' E 009°51'0 0.0
2017-Jun-20 07:29N 44°03' E 009°51'0 0.0
2017-Jun-20 07:00N 44°03' E 009°51'0 0.0
2017-Jun-20 06:30N 44°03' E 009°51'0 0.0
2017-Jun-20 06:00N 44°03' E 009°51'0 0.6
2017-Jun-20 05:30N 44°03' E 009°52'4 7.6
2017-Jun-20 05:00N 44°01' E 009°56'3 5.2
2017-Jun-20 04:30N 43°59' E 009°53'3 7.0
2017-Jun-20 04:01N 44°00' E 009°48'3 6.7
2017-Jun-20 03:30N 44°01' E 009°44'3 5.5
2017-Jun-20 03:00N 44°02' E 009°40'3 5.7
2017-Jun-20 02:30N 44°04' E 009°37'3 5.7
2017-Jun-20 02:00N 44°05' E 009°34'3 5.6
2017-Jun-20 01:30N 44°07' E 009°30'3 5.4
2017-Jun-20 01:01N 44°08' E 009°27'3 5.4
2017-Jun-20 00:31N 44°10' E 009°24'3 5.6
2017-Jun-20 00:00N 44°12' E 009°21'3 5.9
2017-Jun-19 23:31N 44°14' E 009°19'3 6.0
2017-Jun-19 23:00N 44°17' E 009°18'2 0.1
2017-Jun-19 05:43N 44°19' E 009°17'2 7.1
2017-Jun-19 05:26N 44°17' E 009°19'3 7.8
2017-Jun-19 05:00N 44°16' E 009°15'4 7.9
2017-Jun-19 04:30N 44°14' E 009°10'4 7.7
2017-Jun-19 04:00N 44°12' E 009°05'4 8.8
2017-Jun-19 03:30N 44°10' E 008°60'4 8.6
2017-Jun-19 03:00N 44°08' E 008°54'4 8.7
2017-Jun-19 02:30N 44°06' E 008°49'5 9.9
2017-Jun-19 01:59N 44°04' E 008°42'5 9.7
2017-Jun-19 01:30N 44°01' E 008°37'5 9.5
2017-Jun-19 01:00N 43°59' E 008°31'5 9.3
2017-Jun-19 00:30N 43°56' E 008°26'5 9.0
2017-Jun-19 00:00N 43°53' E 008°21'4 8.8
2017-Jun-18 23:30N 43°51' E 008°16'4 8.9
2017-Jun-18 23:00N 43°50' E 008°10'5 9.1
2017-Jun-18 22:30N 43°49' E 008°04'31 9.0
2017-Jun-18 19:00N 43°36' E 007°24'8 9.2
2017-Jun-18 18:11N 43°33' E 007°15'2 9.2
2017-Jun-18 17:59N 43°32' E 007°12'4 9.1
2017-Jun-18 17:30N 43°30' E 007°07'4 7.9
2017-Jun-18 17:01N 43°29' E 007°02'3 5.6
2017-Jun-18 16:29N 43°32' E 007°01'0 0.1
2017-Jun-18 15:50N 43°32' E 007°01'0 0.0
2017-Jun-18 15:26N 43°32' E 007°01'0 0.0
2017-Jun-18 14:48N 43°32' E 007°01'0 0.0
2017-Jun-18 14:00N 43°32' E 007°01'0 0.0
2017-Jun-18 13:28N 43°32' E 007°01'0 0.0
2017-Jun-18 12:52N 43°32' E 007°01'0 0.0
2017-Jun-18 12:25N 43°32' E 007°01'0 0.0
2017-Jun-18 11:17N 43°32' E 007°01'0 0.0
2017-Jun-18 10:53N 43°32' E 007°01'0 0.0
2017-Jun-18 10:00N 43°32' E 007°01'0 0.1
2017-Jun-18 09:27N 43°32' E 007°01'0 0.0
2017-Jun-18 08:58N 43°32' E 007°01'0 0.0
2017-Jun-18 08:28N 43°32' E 007°01'0 0.0
2017-Jun-18 07:58N 43°32' E 007°01'0 0.0
2017-Jun-18 07:29N 43°32' E 007°01'0 0.0
2017-Jun-18 06:53N 43°32' E 007°01'0 0.1
2017-Jun-18 06:29N 43°32' E 007°01'0 0.1
2017-Jun-18 05:57N 43°32' E 007°01'0 0.0
2017-Jun-18 05:21N 43°32' E 007°01'0 0.0
2017-Jun-18 04:54N 43°32' E 007°01'0 0.0
2017-Jun-18 04:22N 43°32' E 007°01'0 0.0
2017-Jun-18 03:55N 43°32' E 007°01'0 0.0
2017-Jun-18 03:28N 43°32' E 007°01'0 0.0
2017-Jun-18 02:50N 43°32' E 007°01'0 0.0
2017-Jun-18 02:29N 43°32' E 007°01'0 0.0
2017-Jun-18 01:51N 43°32' E 007°01'0 0.0
2017-Jun-18 01:27N 43°32' E 007°01'0 0.0
2017-Jun-18 00:53N 43°32' E 007°01'0 0.0
2017-Jun-18 00:23N 43°32' E 007°01'0 0.0
2017-Jun-18 00:00N 43°32' E 007°01'0 0.0
2017-Jun-17 22:25N 43°32' E 007°01'0 0.0
2017-Jun-17 21:58N 43°32' E 007°01'0 0.0
2017-Jun-17 21:28N 43°32' E 007°01'0 0.0
2017-Jun-17 20:59N 43°32' E 007°01'0 0.0
2017-Jun-17 19:29N 43°32' E 007°01'0 0.0
2017-Jun-17 18:47N 43°32' E 007°01'0 0.0
2017-Jun-17 18:23N 43°32' E 007°01'0 0.0
2017-Jun-17 17:51N 43°32' E 007°01'2 5.5
2017-Jun-17 17:31N 43°30' E 007°01'510.9
2017-Jun-17 17:00N 43°31' E 007°08'  

Dump ship's entire track history